sensor_id;sensor_type;location;lat;lon;timestamp;P1;durP1;ratioP1;P2;durP2;ratioP2
65583;SDS011;70321;43.592;1.456;2023-06-10T00:02:15;5.75;;;1.15;;
65583;SDS011;70321;43.592;1.456;2023-06-10T00:04:42;3.95;;;1.20;;
65583;SDS011;70321;43.592;1.456;2023-06-10T00:07:08;4.20;;;1.88;;
65583;SDS011;70321;43.592;1.456;2023-06-10T00:09:37;5.00;;;1.20;;
65583;SDS011;70321;43.592;1.456;2023-06-10T00:12:04;3.67;;;1.35;;
65583;SDS011;70321;43.592;1.456;2023-06-10T00:14:31;3.03;;;1.05;;
65583;SDS011;70321;43.592;1.456;2023-06-10T00:16:57;5.10;;;1.30;;
65583;SDS011;70321;43.592;1.456;2023-06-10T00:19:23;5.47;;;1.33;;
65583;SDS011;70321;43.592;1.456;2023-06-10T00:21:55;4.35;;;1.10;;
65583;SDS011;70321;43.592;1.456;2023-06-10T00:24:21;2.40;;;1.10;;
65583;SDS011;70321;43.592;1.456;2023-06-10T00:26:47;4.25;;;1.40;;
65583;SDS011;70321;43.592;1.456;2023-06-10T00:29:12;3.22;;;1.15;;
65583;SDS011;70321;43.592;1.456;2023-06-10T00:31:39;2.83;;;1.15;;
65583;SDS011;70321;43.592;1.456;2023-06-10T00:34:04;4.57;;;1.30;;
65583;SDS011;70321;43.592;1.456;2023-06-10T00:36:30;2.92;;;1.20;;
65583;SDS011;70321;43.592;1.456;2023-06-10T00:38:56;5.07;;;1.30;;
65583;SDS011;70321;43.592;1.456;2023-06-10T00:41:22;3.50;;;1.25;;
65583;SDS011;70321;43.592;1.456;2023-06-10T00:43:47;6.03;;;1.45;;
65583;SDS011;70321;43.592;1.456;2023-06-10T00:46:13;11.68;;;1.45;;
65583;SDS011;70321;43.592;1.456;2023-06-10T00:48:39;4.45;;;1.38;;
65583;SDS011;70321;43.592;1.456;2023-06-10T00:51:06;5.18;;;1.63;;
65583;SDS011;70321;43.592;1.456;2023-06-10T00:53:34;5.05;;;1.50;;
65583;SDS011;70321;43.592;1.456;2023-06-10T00:56:00;5.18;;;1.70;;
65583;SDS011;70321;43.592;1.456;2023-06-10T00:58:26;6.07;;;1.23;;
65583;SDS011;70321;43.592;1.456;2023-06-10T01:00:52;4.10;;;1.25;;
65583;SDS011;70321;43.592;1.456;2023-06-10T01:03:18;2.25;;;1.08;;
65583;SDS011;70321;43.592;1.456;2023-06-10T01:05:44;4.28;;;1.10;;
65583;SDS011;70321;43.592;1.456;2023-06-10T01:10:59;4.95;;;1.40;;
65583;SDS011;70321;43.592;1.456;2023-06-10T01:13:26;2.33;;;1.17;;
65583;SDS011;70321;43.592;1.456;2023-06-10T01:15:58;4.00;;;1.15;;
65583;SDS011;70321;43.592;1.456;2023-06-10T01:18:29;3.72;;;1.17;;
65583;SDS011;70321;43.592;1.456;2023-06-10T01:20:55;3.47;;;1.30;;
65583;SDS011;70321;43.592;1.456;2023-06-10T01:23:22;5.47;;;1.52;;
65583;SDS011;70321;43.592;1.456;2023-06-10T01:25:49;7.32;;;1.25;;
65583;SDS011;70321;43.592;1.456;2023-06-10T01:31:17;4.82;;;1.33;;
65583;SDS011;70321;43.592;1.456;2023-06-10T01:33:50;9.00;;;1.40;;
65583;SDS011;70321;43.592;1.456;2023-06-10T01:36:17;9.02;;;1.30;;
65583;SDS011;70321;43.592;1.456;2023-06-10T01:38:45;3.47;;;1.10;;
65583;SDS011;70321;43.592;1.456;2023-06-10T01:41:12;2.35;;;1.08;;
65583;SDS011;70321;43.592;1.456;2023-06-10T01:43:39;4.00;;;1.30;;
65583;SDS011;70321;43.592;1.456;2023-06-10T01:46:05;8.50;;;1.20;;
65583;SDS011;70321;43.592;1.456;2023-06-10T01:48:31;6.72;;;1.20;;
65583;SDS011;70321;43.592;1.456;2023-06-10T01:50:57;2.67;;;1.23;;
65583;SDS011;70321;43.592;1.456;2023-06-10T01:53:23;2.92;;;1.10;;
65583;SDS011;70321;43.592;1.456;2023-06-10T01:55:49;2.65;;;1.23;;
65583;SDS011;70321;43.592;1.456;2023-06-10T01:58:14;4.93;;;1.20;;
65583;SDS011;70321;43.592;1.456;2023-06-10T02:00:40;5.35;;;1.05;;
65583;SDS011;70321;43.592;1.456;2023-06-10T02:03:05;4.00;;;1.13;;
65583;SDS011;70321;43.592;1.456;2023-06-10T02:05:31;4.70;;;1.33;;
65583;SDS011;70321;43.592;1.456;2023-06-10T02:07:56;5.53;;;1.20;;
65583;SDS011;70321;43.592;1.456;2023-06-10T02:10:21;7.20;;;1.27;;
65583;SDS011;70321;43.592;1.456;2023-06-10T02:12:47;3.38;;;1.30;;
65583;SDS011;70321;43.592;1.456;2023-06-10T02:15:12;4.45;;;1.17;;
65583;SDS011;70321;43.592;1.456;2023-06-10T02:17:38;4.18;;;0.98;;
65583;SDS011;70321;43.592;1.456;2023-06-10T02:20:03;6.03;;;1.20;;
65583;SDS011;70321;43.592;1.456;2023-06-10T02:22:32;6.85;;;1.13;;
65583;SDS011;70321;43.592;1.456;2023-06-10T02:24:57;5.78;;;1.45;;
65583;SDS011;70321;43.592;1.456;2023-06-10T02:27:22;5.18;;;1.30;;
65583;SDS011;70321;43.592;1.456;2023-06-10T02:29:48;6.05;;;1.30;;
65583;SDS011;70321;43.592;1.456;2023-06-10T02:32:13;3.95;;;1.35;;
65583;SDS011;70321;43.592;1.456;2023-06-10T02:34:39;5.53;;;1.50;;
65583;SDS011;70321;43.592;1.456;2023-06-10T02:37:04;3.38;;;1.30;;
65583;SDS011;70321;43.592;1.456;2023-06-10T02:39:29;7.10;;;1.73;;
65583;SDS011;70321;43.592;1.456;2023-06-10T02:41:55;5.50;;;1.42;;
65583;SDS011;70321;43.592;1.456;2023-06-10T02:44:20;2.67;;;1.30;;
65583;SDS011;70321;43.592;1.456;2023-06-10T02:46:46;4.32;;;1.40;;
65583;SDS011;70321;43.592;1.456;2023-06-10T02:49:11;4.15;;;1.60;;
65583;SDS011;70321;43.592;1.456;2023-06-10T02:51:37;5.80;;;1.73;;
65583;SDS011;70321;43.592;1.456;2023-06-10T02:54:03;4.63;;;1.70;;
65583;SDS011;70321;43.592;1.456;2023-06-10T02:56:30;1.95;;;1.40;;
65583;SDS011;70321;43.592;1.456;2023-06-10T02:58:56;6.10;;;1.50;;
65583;SDS011;70321;43.592;1.456;2023-06-10T03:01:22;3.70;;;1.55;;
65583;SDS011;70321;43.592;1.456;2023-06-10T03:03:47;6.43;;;1.35;;
65583;SDS011;70321;43.592;1.456;2023-06-10T03:06:13;4.25;;;1.40;;
65583;SDS011;70321;43.592;1.456;2023-06-10T03:08:39;5.75;;;1.30;;
65583;SDS011;70321;43.592;1.456;2023-06-10T03:11:05;2.92;;;1.40;;
65583;SDS011;70321;43.592;1.456;2023-06-10T03:13:30;3.75;;;1.38;;
65583;SDS011;70321;43.592;1.456;2023-06-10T03:15:57;4.25;;;1.63;;
65583;SDS011;70321;43.592;1.456;2023-06-10T03:18:25;4.10;;;1.42;;
65583;SDS011;70321;43.592;1.456;2023-06-10T03:20:52;6.10;;;1.90;;
65583;SDS011;70321;43.592;1.456;2023-06-10T03:23:17;4.82;;;1.40;;
65583;SDS011;70321;43.592;1.456;2023-06-10T03:25:43;2.72;;;1.20;;
65583;SDS011;70321;43.592;1.456;2023-06-10T03:28:09;3.45;;;1.40;;
65583;SDS011;70321;43.592;1.456;2023-06-10T03:30:35;3.83;;;1.20;;
65583;SDS011;70321;43.592;1.456;2023-06-10T03:33:00;5.93;;;1.52;;
65583;SDS011;70321;43.592;1.456;2023-06-10T03:35:26;4.93;;;1.30;;
65583;SDS011;70321;43.592;1.456;2023-06-10T03:37:51;4.00;;;1.27;;
65583;SDS011;70321;43.592;1.456;2023-06-10T03:40:17;6.32;;;1.67;;
65583;SDS011;70321;43.592;1.456;2023-06-10T03:42:42;6.05;;;1.42;;
65583;SDS011;70321;43.592;1.456;2023-06-10T03:45:09;5.38;;;1.50;;
65583;SDS011;70321;43.592;1.456;2023-06-10T03:47:35;6.03;;;1.83;;
65583;SDS011;70321;43.592;1.456;2023-06-10T03:50:02;9.35;;;1.50;;
65583;SDS011;70321;43.592;1.456;2023-06-10T03:52:28;5.68;;;1.33;;
65583;SDS011;70321;43.592;1.456;2023-06-10T03:54:54;3.42;;;1.40;;
65583;SDS011;70321;43.592;1.456;2023-06-10T03:57:19;2.75;;;1.42;;
65583;SDS011;70321;43.592;1.456;2023-06-10T03:59:45;5.45;;;1.30;;
65583;SDS011;70321;43.592;1.456;2023-06-10T04:02:10;4.30;;;1.40;;
65583;SDS011;70321;43.592;1.456;2023-06-10T04:04:36;5.63;;;1.20;;
65583;SDS011;70321;43.592;1.456;2023-06-10T04:07:02;3.17;;;1.20;;
65583;SDS011;70321;43.592;1.456;2023-06-10T04:09:28;2.78;;;1.10;;
65583;SDS011;70321;43.592;1.456;2023-06-10T04:11:54;4.15;;;1.10;;
65583;SDS011;70321;43.592;1.456;2023-06-10T04:14:19;2.83;;;1.10;;
65583;SDS011;70321;43.592;1.456;2023-06-10T04:16:44;5.38;;;1.30;;
65583;SDS011;70321;43.592;1.456;2023-06-10T04:19:10;3.47;;;1.10;;
65583;SDS011;70321;43.592;1.456;2023-06-10T04:21:35;4.38;;;1.20;;
65583;SDS011;70321;43.592;1.456;2023-06-10T04:24:01;6.78;;;1.30;;
65583;SDS011;70321;43.592;1.456;2023-06-10T04:26:27;4.35;;;1.30;;
65583;SDS011;70321;43.592;1.456;2023-06-10T04:28:52;5.97;;;1.40;;
65583;SDS011;70321;43.592;1.456;2023-06-10T04:31:18;4.85;;;1.13;;
65583;SDS011;70321;43.592;1.456;2023-06-10T04:33:44;3.55;;;1.05;;
65583;SDS011;70321;43.592;1.456;2023-06-10T04:36:10;3.90;;;1.25;;
65583;SDS011;70321;43.592;1.456;2023-06-10T04:38:35;3.75;;;1.27;;
65583;SDS011;70321;43.592;1.456;2023-06-10T04:41:01;5.18;;;1.40;;
65583;SDS011;70321;43.592;1.456;2023-06-10T04:43:27;3.53;;;1.30;;
65583;SDS011;70321;43.592;1.456;2023-06-10T04:45:53;4.45;;;1.40;;
65583;SDS011;70321;43.592;1.456;2023-06-10T04:48:19;3.58;;;1.38;;
65583;SDS011;70321;43.592;1.456;2023-06-10T04:50:45;6.07;;;1.20;;
65583;SDS011;70321;43.592;1.456;2023-06-10T04:53:10;3.08;;;1.30;;
65583;SDS011;70321;43.592;1.456;2023-06-10T04:55:36;7.07;;;1.80;;
65583;SDS011;70321;43.592;1.456;2023-06-10T04:58:01;5.43;;;2.00;;
65583;SDS011;70321;43.592;1.456;2023-06-10T05:00:27;3.97;;;1.73;;
65583;SDS011;70321;43.592;1.456;2023-06-10T05:02:52;3.70;;;1.67;;
65583;SDS011;70321;43.592;1.456;2023-06-10T05:05:18;4.13;;;1.90;;
65583;SDS011;70321;43.592;1.456;2023-06-10T05:07:44;4.30;;;1.73;;
65583;SDS011;70321;43.592;1.456;2023-06-10T05:10:09;4.95;;;1.77;;
65583;SDS011;70321;43.592;1.456;2023-06-10T05:12:38;7.18;;;1.70;;
65583;SDS011;70321;43.592;1.456;2023-06-10T05:15:04;6.50;;;1.65;;
65583;SDS011;70321;43.592;1.456;2023-06-10T05:17:30;7.60;;;1.60;;
65583;SDS011;70321;43.592;1.456;2023-06-10T05:19:56;5.60;;;1.60;;
65583;SDS011;70321;43.592;1.456;2023-06-10T05:22:21;4.57;;;1.70;;
65583;SDS011;70321;43.592;1.456;2023-06-10T05:24:49;4.50;;;1.48;;
65583;SDS011;70321;43.592;1.456;2023-06-10T05:27:16;5.25;;;1.60;;
65583;SDS011;70321;43.592;1.456;2023-06-10T05:29:41;5.65;;;1.63;;
65583;SDS011;70321;43.592;1.456;2023-06-10T05:32:07;4.00;;;1.33;;
65583;SDS011;70321;43.592;1.456;2023-06-10T05:34:33;3.67;;;1.58;;
65583;SDS011;70321;43.592;1.456;2023-06-10T05:36:58;4.47;;;1.70;;
65583;SDS011;70321;43.592;1.456;2023-06-10T05:39:24;4.55;;;1.80;;
65583;SDS011;70321;43.592;1.456;2023-06-10T05:41:50;3.60;;;1.80;;
65583;SDS011;70321;43.592;1.456;2023-06-10T05:44:16;3.20;;;1.73;;
65583;SDS011;70321;43.592;1.456;2023-06-10T05:46:41;5.25;;;1.80;;
65583;SDS011;70321;43.592;1.456;2023-06-10T05:49:06;6.45;;;1.95;;
65583;SDS011;70321;43.592;1.456;2023-06-10T05:51:32;5.43;;;1.80;;
65583;SDS011;70321;43.592;1.456;2023-06-10T05:53:57;5.85;;;2.10;;
65583;SDS011;70321;43.592;1.456;2023-06-10T05:56:23;8.65;;;1.90;;
65583;SDS011;70321;43.592;1.456;2023-06-10T05:58:48;5.80;;;1.75;;
65583;SDS011;70321;43.592;1.456;2023-06-10T06:01:14;2.88;;;1.65;;
65583;SDS011;70321;43.592;1.456;2023-06-10T06:03:40;6.60;;;1.80;;
65583;SDS011;70321;43.592;1.456;2023-06-10T06:06:05;8.63;;;1.83;;
65583;SDS011;70321;43.592;1.456;2023-06-10T06:08:31;5.15;;;2.03;;
65583;SDS011;70321;43.592;1.456;2023-06-10T06:10:56;4.18;;;1.50;;
65583;SDS011;70321;43.592;1.456;2023-06-10T06:13:25;4.07;;;1.60;;
65583;SDS011;70321;43.592;1.456;2023-06-10T06:15:50;4.38;;;1.60;;
65583;SDS011;70321;43.592;1.456;2023-06-10T06:18:16;6.30;;;1.70;;
65583;SDS011;70321;43.592;1.456;2023-06-10T06:20:43;3.60;;;1.30;;
65583;SDS011;70321;43.592;1.456;2023-06-10T06:23:08;2.40;;;1.83;;
65583;SDS011;70321;43.592;1.456;2023-06-10T06:25:35;2.83;;;1.35;;
65583;SDS011;70321;43.592;1.456;2023-06-10T06:28:01;6.85;;;1.60;;
65583;SDS011;70321;43.592;1.456;2023-06-10T06:30:27;3.58;;;1.50;;
65583;SDS011;70321;43.592;1.456;2023-06-10T06:32:52;3.38;;;1.60;;
65583;SDS011;70321;43.592;1.456;2023-06-10T06:35:18;4.38;;;1.50;;
65583;SDS011;70321;43.592;1.456;2023-06-10T06:37:43;2.78;;;1.40;;
65583;SDS011;70321;43.592;1.456;2023-06-10T06:40:09;5.25;;;1.45;;
65583;SDS011;70321;43.592;1.456;2023-06-10T06:42:35;5.57;;;1.27;;
65583;SDS011;70321;43.592;1.456;2023-06-10T06:45:00;3.33;;;1.50;;
65583;SDS011;70321;43.592;1.456;2023-06-10T06:47:25;5.65;;;1.52;;
65583;SDS011;70321;43.592;1.456;2023-06-10T06:49:51;3.67;;;1.48;;
65583;SDS011;70321;43.592;1.456;2023-06-10T06:52:17;5.97;;;1.30;;
65583;SDS011;70321;43.592;1.456;2023-06-10T06:54:42;3.88;;;1.33;;
65583;SDS011;70321;43.592;1.456;2023-06-10T06:57:07;3.85;;;1.30;;
65583;SDS011;70321;43.592;1.456;2023-06-10T06:59:33;2.95;;;1.45;;
65583;SDS011;70321;43.592;1.456;2023-06-10T07:01:59;3.67;;;1.60;;
65583;SDS011;70321;43.592;1.456;2023-06-10T07:04:24;2.28;;;1.20;;
65583;SDS011;70321;43.592;1.456;2023-06-10T07:06:50;3.72;;;1.30;;
65583;SDS011;70321;43.592;1.456;2023-06-10T07:09:15;5.20;;;1.40;;
65583;SDS011;70321;43.592;1.456;2023-06-10T07:11:41;3.08;;;1.30;;
65583;SDS011;70321;43.592;1.456;2023-06-10T07:14:07;4.53;;;1.38;;
65583;SDS011;70321;43.592;1.456;2023-06-10T07:16:32;3.90;;;1.05;;
65583;SDS011;70321;43.592;1.456;2023-06-10T07:18:58;3.92;;;1.30;;
65583;SDS011;70321;43.592;1.456;2023-06-10T07:21:23;3.33;;;1.63;;
65583;SDS011;70321;43.592;1.456;2023-06-10T07:23:49;2.78;;;1.38;;
65583;SDS011;70321;43.592;1.456;2023-06-10T07:26:17;2.67;;;1.40;;
65583;SDS011;70321;43.592;1.456;2023-06-10T07:28:42;4.55;;;1.20;;
65583;SDS011;70321;43.592;1.456;2023-06-10T07:31:08;4.30;;;1.40;;
65583;SDS011;70321;43.592;1.456;2023-06-10T07:33:34;3.65;;;1.67;;
65583;SDS011;70321;43.592;1.456;2023-06-10T07:35:59;6.65;;;1.42;;
65583;SDS011;70321;43.592;1.456;2023-06-10T07:38:25;3.40;;;1.33;;
65583;SDS011;70321;43.592;1.456;2023-06-10T07:40:51;2.65;;;1.30;;
65583;SDS011;70321;43.592;1.456;2023-06-10T07:43:16;2.88;;;1.30;;
65583;SDS011;70321;43.592;1.456;2023-06-10T07:45:43;3.42;;;1.58;;
65583;SDS011;70321;43.592;1.456;2023-06-10T07:48:09;3.20;;;1.60;;
65583;SDS011;70321;43.592;1.456;2023-06-10T07:50:35;4.18;;;1.67;;
65583;SDS011;70321;43.592;1.456;2023-06-10T07:53:01;4.72;;;1.70;;
65583;SDS011;70321;43.592;1.456;2023-06-10T07:55:26;3.20;;;1.60;;
65583;SDS011;70321;43.592;1.456;2023-06-10T07:57:52;5.03;;;1.52;;
65583;SDS011;70321;43.592;1.456;2023-06-10T08:00:18;4.18;;;1.35;;
65583;SDS011;70321;43.592;1.456;2023-06-10T08:02:44;4.38;;;1.60;;
65583;SDS011;70321;43.592;1.456;2023-06-10T08:05:09;7.20;;;1.70;;
65583;SDS011;70321;43.592;1.456;2023-06-10T08:07:35;3.80;;;1.45;;
65583;SDS011;70321;43.592;1.456;2023-06-10T08:10:00;6.63;;;1.83;;
65583;SDS011;70321;43.592;1.456;2023-06-10T08:12:26;4.32;;;1.52;;
65583;SDS011;70321;43.592;1.456;2023-06-10T08:14:52;4.18;;;1.50;;
65583;SDS011;70321;43.592;1.456;2023-06-10T08:17:17;4.43;;;1.50;;
65583;SDS011;70321;43.592;1.456;2023-06-10T08:19:42;4.60;;;1.40;;
65583;SDS011;70321;43.592;1.456;2023-06-10T08:22:08;2.85;;;1.27;;
65583;SDS011;70321;43.592;1.456;2023-06-10T08:24:33;3.45;;;1.42;;
65583;SDS011;70321;43.592;1.456;2023-06-10T08:26:59;3.78;;;1.38;;
65583;SDS011;70321;43.592;1.456;2023-06-10T08:29:24;4.85;;;1.60;;
65583;SDS011;70321;43.592;1.456;2023-06-10T08:31:50;4.35;;;1.50;;
65583;SDS011;70321;43.592;1.456;2023-06-10T08:34:15;2.58;;;1.38;;
65583;SDS011;70321;43.592;1.456;2023-06-10T08:36:41;6.15;;;1.50;;
65583;SDS011;70321;43.592;1.456;2023-06-10T08:39:06;2.58;;;1.30;;
65583;SDS011;70321;43.592;1.456;2023-06-10T08:41:35;3.15;;;1.10;;
65583;SDS011;70321;43.592;1.456;2023-06-10T08:44:10;6.57;;;1.45;;
65583;SDS011;70321;43.592;1.456;2023-06-10T08:46:43;4.18;;;1.40;;
65583;SDS011;70321;43.592;1.456;2023-06-10T08:49:10;4.18;;;1.38;;
65583;SDS011;70321;43.592;1.456;2023-06-10T08:51:41;5.90;;;1.35;;
65583;SDS011;70321;43.592;1.456;2023-06-10T08:54:11;2.70;;;1.30;;
65583;SDS011;70321;43.592;1.456;2023-06-10T08:56:44;3.42;;;1.23;;
65583;SDS011;70321;43.592;1.456;2023-06-10T08:59:13;2.33;;;1.52;;
65583;SDS011;70321;43.592;1.456;2023-06-10T09:01:39;3.10;;;1.20;;
65583;SDS011;70321;43.592;1.456;2023-06-10T09:04:04;3.40;;;1.40;;
65583;SDS011;70321;43.592;1.456;2023-06-10T09:06:31;4.20;;;1.15;;
65583;SDS011;70321;43.592;1.456;2023-06-10T09:08:58;5.18;;;1.50;;
65583;SDS011;70321;43.592;1.456;2023-06-10T09:11:24;4.30;;;1.33;;
65583;SDS011;70321;43.592;1.456;2023-06-10T09:13:50;3.45;;;1.42;;
65583;SDS011;70321;43.592;1.456;2023-06-10T09:16:16;3.17;;;1.30;;
65583;SDS011;70321;43.592;1.456;2023-06-10T09:18:41;5.72;;;1.23;;
65583;SDS011;70321;43.592;1.456;2023-06-10T09:21:07;2.92;;;1.20;;
65583;SDS011;70321;43.592;1.456;2023-06-10T09:23:33;3.50;;;1.48;;
65583;SDS011;70321;43.592;1.456;2023-06-10T09:25:59;7.38;;;1.40;;
65583;SDS011;70321;43.592;1.456;2023-06-10T09:28:24;3.65;;;1.30;;
65583;SDS011;70321;43.592;1.456;2023-06-10T09:30:55;3.17;;;1.20;;
65583;SDS011;70321;43.592;1.456;2023-06-10T09:33:27;2.65;;;1.30;;
65583;SDS011;70321;43.592;1.456;2023-06-10T09:35:53;3.47;;;1.00;;
65583;SDS011;70321;43.592;1.456;2023-06-10T09:38:21;3.90;;;1.30;;
65583;SDS011;70321;43.592;1.456;2023-06-10T09:40:50;4.00;;;1.20;;
65583;SDS011;70321;43.592;1.456;2023-06-10T09:43:17;3.67;;;1.20;;
65583;SDS011;70321;43.592;1.456;2023-06-10T09:45:42;3.53;;;1.30;;
65583;SDS011;70321;43.592;1.456;2023-06-10T09:48:08;1.98;;;1.30;;
65583;SDS011;70321;43.592;1.456;2023-06-10T09:50:34;2.00;;;1.17;;
65583;SDS011;70321;43.592;1.456;2023-06-10T09:53:00;2.72;;;1.20;;
65583;SDS011;70321;43.592;1.456;2023-06-10T09:55:27;4.32;;;1.20;;
65583;SDS011;70321;43.592;1.456;2023-06-10T09:57:53;1.80;;;1.10;;
65583;SDS011;70321;43.592;1.456;2023-06-10T10:00:19;1.52;;;1.02;;
65583;SDS011;70321;43.592;1.456;2023-06-10T10:02:48;1.75;;;1.10;;
65583;SDS011;70321;43.592;1.456;2023-06-10T10:05:14;3.63;;;1.13;;
65583;SDS011;70321;43.592;1.456;2023-06-10T10:07:41;3.65;;;1.23;;
65583;SDS011;70321;43.592;1.456;2023-06-10T10:10:07;4.68;;;1.10;;
65583;SDS011;70321;43.592;1.456;2023-06-10T10:12:34;1.85;;;1.10;;
65583;SDS011;70321;43.592;1.456;2023-06-10T10:15:01;1.83;;;1.00;;
65583;SDS011;70321;43.592;1.456;2023-06-10T10:17:27;1.75;;;1.10;;
65583;SDS011;70321;43.592;1.456;2023-06-10T10:20:03;1.73;;;0.98;;
65583;SDS011;70321;43.592;1.456;2023-06-10T10:22:31;2.00;;;1.02;;
65583;SDS011;70321;43.592;1.456;2023-06-10T10:25:11;3.58;;;1.20;;
65583;SDS011;70321;43.592;1.456;2023-06-10T10:27:48;2.03;;;1.20;;
65583;SDS011;70321;43.592;1.456;2023-06-10T10:30:17;1.65;;;1.08;;
65583;SDS011;70321;43.592;1.456;2023-06-10T10:32:57;1.88;;;1.02;;
65583;SDS011;70321;43.592;1.456;2023-06-10T10:35:26;1.17;;;1.00;;
65583;SDS011;70321;43.592;1.456;2023-06-10T10:37:52;2.60;;;1.20;;
65583;SDS011;70321;43.592;1.456;2023-06-10T10:40:20;3.20;;;1.10;;
65583;SDS011;70321;43.592;1.456;2023-06-10T10:42:47;4.20;;;1.30;;
65583;SDS011;70321;43.592;1.456;2023-06-10T10:45:14;1.52;;;1.10;;
65583;SDS011;70321;43.592;1.456;2023-06-10T10:47:39;2.83;;;1.20;;
65583;SDS011;70321;43.592;1.456;2023-06-10T10:50:16;3.08;;;1.27;;
65583;SDS011;70321;43.592;1.456;2023-06-10T10:52:55;4.47;;;1.20;;
65583;SDS011;70321;43.592;1.456;2023-06-10T10:55:21;5.35;;;1.30;;
65583;SDS011;70321;43.592;1.456;2023-06-10T10:58:04;2.42;;;1.20;;
65583;SDS011;70321;43.592;1.456;2023-06-10T11:00:30;2.83;;;1.13;;
65583;SDS011;70321;43.592;1.456;2023-06-10T11:02:58;2.13;;;1.30;;
65583;SDS011;70321;43.592;1.456;2023-06-10T11:05:39;3.20;;;1.02;;
65583;SDS011;70321;43.592;1.456;2023-06-10T11:08:14;2.15;;;0.88;;
65583;SDS011;70321;43.592;1.456;2023-06-10T11:10:41;1.65;;;0.98;;
65583;SDS011;70321;43.592;1.456;2023-06-10T11:13:18;1.58;;;1.00;;
65583;SDS011;70321;43.592;1.456;2023-06-10T11:15:48;2.28;;;1.00;;
65583;SDS011;70321;43.592;1.456;2023-06-10T11:26:08;3.28;;;0.98;;
65583;SDS011;70321;43.592;1.456;2023-06-10T11:31:21;1.48;;;0.98;;
65583;SDS011;70321;43.592;1.456;2023-06-10T11:36:20;1.40;;;1.00;;
65583;SDS011;70321;43.592;1.456;2023-06-10T11:38:46;1.83;;;1.08;;
65583;SDS011;70321;43.592;1.456;2023-06-10T11:41:12;2.92;;;1.00;;
65583;SDS011;70321;43.592;1.456;2023-06-10T11:43:45;1.17;;;0.80;;
65583;SDS011;70321;43.592;1.456;2023-06-10T11:46:11;1.83;;;0.90;;
65583;SDS011;70321;43.592;1.456;2023-06-10T11:48:37;2.78;;;1.10;;
65583;SDS011;70321;43.592;1.456;2023-06-10T11:51:06;1.70;;;1.00;;
65583;SDS011;70321;43.592;1.456;2023-06-10T11:53:32;1.90;;;1.00;;
65583;SDS011;70321;43.592;1.456;2023-06-10T11:55:58;2.20;;;1.00;;
65583;SDS011;70321;43.592;1.456;2023-06-10T11:58:23;4.15;;;0.73;;
65583;SDS011;70321;43.592;1.456;2023-06-10T12:00:50;1.10;;;0.70;;
65583;SDS011;70321;43.592;1.456;2023-06-10T12:03:16;0.90;;;0.68;;
65583;SDS011;70321;43.592;1.456;2023-06-10T12:05:58;1.38;;;0.70;;
65583;SDS011;70321;43.592;1.456;2023-06-10T12:08:26;1.55;;;0.80;;
65583;SDS011;70321;43.592;1.456;2023-06-10T12:10:55;1.67;;;0.88;;
65583;SDS011;70321;43.592;1.456;2023-06-10T12:13:21;1.63;;;0.80;;
65583;SDS011;70321;43.592;1.456;2023-06-10T12:15:48;2.40;;;0.80;;
65583;SDS011;70321;43.592;1.456;2023-06-10T12:18:18;3.42;;;0.73;;
65583;SDS011;70321;43.592;1.456;2023-06-10T12:20:44;1.27;;;0.80;;
65583;SDS011;70321;43.592;1.456;2023-06-10T12:23:10;1.40;;;0.90;;
65583;SDS011;70321;43.592;1.456;2023-06-10T12:25:36;1.17;;;0.80;;
65583;SDS011;70321;43.592;1.456;2023-06-10T12:28:03;1.77;;;0.80;;
65583;SDS011;70321;43.592;1.456;2023-06-10T12:30:29;0.95;;;0.80;;
65583;SDS011;70321;43.592;1.456;2023-06-10T12:32:56;1.08;;;0.80;;
65583;SDS011;70321;43.592;1.456;2023-06-10T12:35:22;4.03;;;1.00;;
65583;SDS011;70321;43.592;1.456;2023-06-10T12:37:56;1.42;;;0.90;;
65583;SDS011;70321;43.592;1.456;2023-06-10T12:40:32;2.92;;;0.88;;
65583;SDS011;70321;43.592;1.456;2023-06-10T12:43:00;1.00;;;0.80;;
65583;SDS011;70321;43.592;1.456;2023-06-10T12:45:29;3.50;;;0.90;;
65583;SDS011;70321;43.592;1.456;2023-06-10T12:50:34;1.95;;;0.90;;
65583;SDS011;70321;43.592;1.456;2023-06-10T12:53:07;1.27;;;0.80;;
65583;SDS011;70321;43.592;1.456;2023-06-10T12:55:33;1.27;;;0.80;;
65583;SDS011;70321;43.592;1.456;2023-06-10T12:57:59;2.17;;;0.70;;
65583;SDS011;70321;43.592;1.456;2023-06-10T13:00:26;1.23;;;0.80;;
65583;SDS011;70321;43.592;1.456;2023-06-10T13:02:54;1.20;;;0.80;;
65583;SDS011;70321;43.592;1.456;2023-06-10T13:05:20;3.42;;;0.85;;
65583;SDS011;70321;43.592;1.456;2023-06-10T13:07:46;2.33;;;0.90;;
65583;SDS011;70321;43.592;1.456;2023-06-10T13:10:15;1.38;;;0.88;;
65583;SDS011;70321;43.592;1.456;2023-06-10T13:12:42;1.67;;;1.00;;
65583;SDS011;70321;43.592;1.456;2023-06-10T13:15:08;1.50;;;0.90;;
65583;SDS011;70321;43.592;1.456;2023-06-10T13:17:34;1.95;;;0.82;;
65583;SDS011;70321;43.592;1.456;2023-06-10T13:20:01;1.92;;;0.90;;
65583;SDS011;70321;43.592;1.456;2023-06-10T13:22:29;1.65;;;1.00;;
65583;SDS011;70321;43.592;1.456;2023-06-10T13:24:57;4.45;;;1.00;;
65583;SDS011;70321;43.592;1.456;2023-06-10T13:27:29;2.55;;;0.80;;
65583;SDS011;70321;43.592;1.456;2023-06-10T13:29:54;1.85;;;0.88;;
65583;SDS011;70321;43.592;1.456;2023-06-10T13:32:20;3.40;;;1.00;;
65583;SDS011;70321;43.592;1.456;2023-06-10T13:34:46;1.50;;;0.93;;
65583;SDS011;70321;43.592;1.456;2023-06-10T13:37:11;2.67;;;0.95;;
65583;SDS011;70321;43.592;1.456;2023-06-10T13:39:38;3.83;;;0.85;;
65583;SDS011;70321;43.592;1.456;2023-06-10T13:42:03;3.17;;;1.10;;
65583;SDS011;70321;43.592;1.456;2023-06-10T13:44:29;1.23;;;0.90;;
65583;SDS011;70321;43.592;1.456;2023-06-10T13:46:58;1.90;;;0.90;;
65583;SDS011;70321;43.592;1.456;2023-06-10T13:49:24;1.50;;;0.82;;
65583;SDS011;70321;43.592;1.456;2023-06-10T13:51:50;3.42;;;1.00;;
65583;SDS011;70321;43.592;1.456;2023-06-10T13:54:15;2.25;;;0.90;;
65583;SDS011;70321;43.592;1.456;2023-06-10T13:56:41;1.40;;;0.90;;
65583;SDS011;70321;43.592;1.456;2023-06-10T13:59:06;1.45;;;0.90;;
65583;SDS011;70321;43.592;1.456;2023-06-10T14:01:32;3.10;;;1.08;;
65583;SDS011;70321;43.592;1.456;2023-06-10T14:03:57;2.13;;;0.82;;
65583;SDS011;70321;43.592;1.456;2023-06-10T14:06:23;2.17;;;0.80;;
65583;SDS011;70321;43.592;1.456;2023-06-10T14:08:48;1.25;;;0.80;;
65583;SDS011;70321;43.592;1.456;2023-06-10T14:11:13;1.45;;;0.80;;
65583;SDS011;70321;43.592;1.456;2023-06-10T14:13:39;1.27;;;0.70;;
65583;SDS011;70321;43.592;1.456;2023-06-10T14:16:05;2.53;;;0.85;;
65583;SDS011;70321;43.592;1.456;2023-06-10T14:18:30;1.33;;;0.90;;
65583;SDS011;70321;43.592;1.456;2023-06-10T14:20:56;2.13;;;0.80;;
65583;SDS011;70321;43.592;1.456;2023-06-10T14:23:21;1.60;;;0.98;;
65583;SDS011;70321;43.592;1.456;2023-06-10T14:25:47;1.58;;;0.80;;
65583;SDS011;70321;43.592;1.456;2023-06-10T14:28:12;2.33;;;0.60;;
65583;SDS011;70321;43.592;1.456;2023-06-10T14:30:37;0.88;;;0.70;;
65583;SDS011;70321;43.592;1.456;2023-06-10T14:33:03;0.82;;;0.80;;
65583;SDS011;70321;43.592;1.456;2023-06-10T14:35:29;1.23;;;0.80;;
65583;SDS011;70321;43.592;1.456;2023-06-10T14:37:54;1.15;;;0.65;;
65583;SDS011;70321;43.592;1.456;2023-06-10T14:40:19;0.70;;;0.57;;
65583;SDS011;70321;43.592;1.456;2023-06-10T14:42:49;1.52;;;0.82;;
65583;SDS011;70321;43.592;1.456;2023-06-10T14:45:15;1.77;;;0.90;;
65583;SDS011;70321;43.592;1.456;2023-06-10T14:47:40;1.23;;;0.90;;
65583;SDS011;70321;43.592;1.456;2023-06-10T14:50:06;3.75;;;0.70;;
65583;SDS011;70321;43.592;1.456;2023-06-10T14:52:32;0.98;;;0.68;;
65583;SDS011;70321;43.592;1.456;2023-06-10T14:54:57;2.53;;;0.90;;
65583;SDS011;70321;43.592;1.456;2023-06-10T14:57:23;1.50;;;0.63;;
65583;SDS011;70321;43.592;1.456;2023-06-10T14:59:48;1.15;;;0.70;;
65583;SDS011;70321;43.592;1.456;2023-06-10T15:02:13;1.45;;;0.90;;
65583;SDS011;70321;43.592;1.456;2023-06-10T15:04:39;0.68;;;0.68;;
65583;SDS011;70321;43.592;1.456;2023-06-10T15:07:04;1.17;;;0.70;;